Impacts METAR Board
IDs:

KPIT - Pittsburgh Intl, PA, US

Updated at: 1300 UTC 23 Jun 2018
Potential Impact None Slight Moderate High
Time 23/01Z 23/02Z 23/03Z 23/04Z 23/05Z 23/06Z 23/07Z 23/08Z 23/09Z 23/10Z 23/11Z 23/12Z 23/13Z
Temp69 68 67 66 66 66 66 66 65 64 65 66 69
Dewpt61 61 61 61 61 61 61 61 63 63 63 64 65
Altim29.81 29.79 29.81 29.79 29.79 29.77 29.76 29.76 29.76 29.75 29.77 29.78 29.79
VIS10 10 10 10 10 10 10 10 6 10 10 10 7
CIG130 130 140 140 130 150 140 95 48 36 15 24 24
CoverBKNOVCBKNBKNBKNOVCOVCOVCOVCOVCOVCBKNBKN
FltCatVFRVFRVFRVFRVFRVFRVFRVFRVFRVFRMVFRMVFRMVFR
WX---------------RA-RA BR-------RA
WDir1101101201101301101201300120170190210
WSpd8 10 8 7 7 7 8 6 3 5 3 5 8
WGst-- -- -- -- -- -- -- -- -- -- -- -- --
Raw hourly METARs
KPIT 230051Z 11008KT 10SM FEW028 SCT048 BKN130 21/16 A2981 RMK AO2 SLP096 T02060161
KPIT 230151Z 11010KT 10SM FEW048 BKN130 OVC200 20/16 A2979 RMK AO2 SLP088 T02000161
KPIT 230251Z 12008KT 10SM FEW023 BKN140 BKN220 19/16 A2981 RMK AO2 RAB13E25 SLP094 P0000 60000 T01940161 53002
KPIT 230351Z 11007KT 10SM BKN140 BKN230 19/16 A2979 RMK AO2 SLP088 T01890161
KPIT 230451Z 13007KT 10SM BKN130 19/16 A2979 RMK AO2 SLP089 T01890161 402390172
KPIT 230551Z 11007KT 10SM OVC150 19/16 A2977 RMK AO2 SLP080 60000 T01890161 10211 20189 58011
KPIT 230651Z 12008KT 10SM FEW075 OVC140 19/16 A2976 RMK AO2 SLP078 T01890161
KPIT 230751Z 13006KT 10SM -RA SCT050 BKN095 OVC140 19/16 A2976 RMK AO2 RAB49 SLP078 P0000 T01890161
KPIT 230851Z VRB03KT 6SM -RA BR FEW017 BKN048 OVC055 18/17 A2976 RMK AO2 SLP077 P0008 60008 T01830172 56004
KPIT 230951Z 12005KT 10SM SCT025 BKN036 OVC050 18/17 A2975 RMK AO2 LTG DSNT NE RAE49 SLP077 P0014 T01780172
KPIT 231051Z 17003KT 10SM OVC015 18/17 A2977 RMK AO2 SLP081 T01830172
KPIT 231151Z 19005KT 10SM SCT011 BKN024 BKN120 19/18 A2978 RMK AO2 SLP085 60022 70025 T01890178 10194 20178 53007
KPIT 231304Z 21008KT 7SM -RA SCT012 BKN024 BKN045 21/18 A2979 RMK AO2 RAB02 P0000 T02060183



Page loaded:  13:53 UTC  |   06:53 AM Pacific  |   07:53 AM Mountain  |   08:53 AM Central  |   09:53 AM Eastern

 

ADVISORIES

FORECASTS

FORECASTS

OBSERVATIONS

USER TOOLS

ABOUT US